createdAt,value
2019-03-28T00:02:27.511Z,14.11
2019-03-28T00:04:59.042Z,16.08
2019-03-28T00:07:30.470Z,17.69
2019-03-28T00:10:05.386Z,17.67
2019-03-28T00:12:36.718Z,16.56
2019-03-28T00:15:08.272Z,15.81
2019-03-28T00:17:39.958Z,15.18
2019-03-28T00:20:11.388Z,14.60
2019-03-28T00:22:47.386Z,14.07
2019-03-28T00:25:19.892Z,13.56
2019-03-28T00:27:51.313Z,14.55
2019-03-28T00:30:23.093Z,16.38
2019-03-28T00:32:54.415Z,15.81
2019-03-28T00:35:26.271Z,14.98
2019-03-28T00:37:58.048Z,14.34
2019-03-28T00:40:30.230Z,13.78
2019-03-28T00:43:01.786Z,14.47
2019-03-28T00:45:33.118Z,16.31
2019-03-28T00:48:04.451Z,17.80
2019-03-28T00:50:35.775Z,17.62
2019-03-28T00:53:07.103Z,16.71
2019-03-28T00:55:38.433Z,15.88
2019-03-28T00:58:09.771Z,15.22
2019-03-28T01:00:41.097Z,14.62
2019-03-28T01:03:12.423Z,14.04
2019-03-28T01:05:43.756Z,13.53
2019-03-28T01:08:15.084Z,15.03
2019-03-28T01:10:47.194Z,16.39
2019-03-28T01:13:18.929Z,15.63
2019-03-28T01:15:50.258Z,14.84
2019-03-28T01:18:21.589Z,14.13
2019-03-28T01:20:52.927Z,13.61
2019-03-28T01:23:24.258Z,13.78
2019-03-28T01:25:55.586Z,15.70
2019-03-28T01:28:26.912Z,16.76
2019-03-28T01:30:58.248Z,15.94
2019-03-28T01:33:29.673Z,15.11
2019-03-28T01:36:01.007Z,14.48
2019-03-28T01:38:32.333Z,13.86
2019-03-28T01:41:03.668Z,13.35
2019-03-28T01:43:34.991Z,14.29
2019-03-28T01:46:06.322Z,16.24
2019-03-28T01:48:37.652Z,17.25
2019-03-28T01:51:08.988Z,16.33
2019-03-28T01:53:40.612Z,15.46
2019-03-28T01:56:11.945Z,14.75
2019-03-28T01:58:43.271Z,14.14
2019-03-28T02:01:15.093Z,13.65
2019-03-28T02:03:46.419Z,14.55
2019-03-28T02:06:18.148Z,16.40
2019-03-28T02:08:50.441Z,16.70
2019-03-28T02:11:22.841Z,15.69
2019-03-28T02:13:54.178Z,14.94
2019-03-28T02:16:25.508Z,14.28
2019-03-28T02:18:56.849Z,13.73
2019-03-28T02:21:28.179Z,13.25
2019-03-28T02:23:59.915Z,14.49
2019-03-28T02:26:31.651Z,16.29
2019-03-28T02:29:02.977Z,17.71
2019-03-28T02:31:34.391Z,17.40
2019-03-28T02:34:05.718Z,16.42
2019-03-28T02:36:37.056Z,15.58
2019-03-28T02:39:08.380Z,14.90
2019-03-28T02:41:39.717Z,14.28
2019-03-28T02:44:11.907Z,13.72
2019-03-28T02:46:43.566Z,13.21
2019-03-28T02:49:14.898Z,14.07
2019-03-28T02:51:47.294Z,16.00
2019-03-28T02:54:18.622Z,17.49
2019-03-28T02:56:49.950Z,17.25
2019-03-28T02:59:21.277Z,16.33
2019-03-28T03:01:52.602Z,15.55
2019-03-28T03:04:23.935Z,14.90
2019-03-28T03:06:55.266Z,14.27
2019-03-28T03:09:26.607Z,14.10
2019-03-28T03:11:57.965Z,15.94
2019-03-28T03:14:29.283Z,16.53
2019-03-28T03:17:00.642Z,15.65
2019-03-28T03:19:32.047Z,14.84
2019-03-28T03:22:03.392Z,14.18
2019-03-28T03:24:34.717Z,14.59
2019-03-28T03:27:06.076Z,16.55
2019-03-28T03:29:37.395Z,16.60
2019-03-28T03:32:08.761Z,15.65
2019-03-28T03:34:40.072Z,14.88
2019-03-28T03:37:11.721Z,14.28
2019-03-28T03:39:43.055Z,14.87
2019-03-28T03:42:14.399Z,16.84
2019-03-28T03:44:45.738Z,17.10
2019-03-28T03:47:17.067Z,16.01
2019-03-28T03:49:48.398Z,15.25
2019-03-28T03:52:19.750Z,14.60
2019-03-28T03:54:51.175Z,14.07
2019-03-28T03:57:22.512Z,14.80
2019-03-28T03:59:54.166Z,16.60
2019-03-28T04:02:25.603Z,16.49
2019-03-28T04:04:57.100Z,15.53
2019-03-28T04:07:28.567Z,14.82
2019-03-28T04:09:59.959Z,14.17
2019-03-28T04:12:31.430Z,13.93
2019-03-28T04:15:02.842Z,15.58
2019-03-28T04:17:34.226Z,16.36
2019-03-28T04:20:07.767Z,15.48
2019-03-28T04:22:39.152Z,14.75
2019-03-28T04:25:10.554Z,14.13
2019-03-28T04:27:41.936Z,14.27
2019-03-28T04:30:13.602Z,16.08
2019-03-28T04:32:44.975Z,17.73
2019-03-28T04:35:16.369Z,17.69
2019-03-28T04:37:47.760Z,16.73
2019-03-28T04:40:19.162Z,15.90
2019-03-28T04:42:50.535Z,15.17
2019-03-28T04:45:21.934Z,14.58
2019-03-28T04:47:53.318Z,14.06
2019-03-28T04:50:24.715Z,14.18
2019-03-28T04:52:56.224Z,16.14
2019-03-28T04:55:27.638Z,16.43
2019-03-28T04:57:59.019Z,15.55
2019-03-28T05:00:30.413Z,14.80
2019-03-28T05:03:02.030Z,14.20
2019-03-28T05:05:33.413Z,14.58
2019-03-28T05:08:04.801Z,16.29
2019-03-28T05:10:39.939Z,16.86
2019-03-28T05:13:11.587Z,15.98
2019-03-28T05:15:42.983Z,15.28
2019-03-28T05:18:14.359Z,14.70
2019-03-28T05:20:45.769Z,14.15
2019-03-28T05:23:17.142Z,14.53
2019-03-28T05:25:48.747Z,16.35
2019-03-28T05:28:22.914Z,16.57
2019-03-28T05:30:54.298Z,15.78
2019-03-28T05:33:25.681Z,15.11
2019-03-28T05:35:57.100Z,14.56
2019-03-28T05:38:28.526Z,14.11
2019-03-28T05:41:00.165Z,15.10
2019-03-28T05:43:32.869Z,17.01
2019-03-28T05:46:04.274Z,17.10
2019-03-28T05:48:35.653Z,16.28
2019-03-28T05:51:07.062Z,15.56
2019-03-28T05:53:38.409Z,15.04
2019-03-28T05:56:10.702Z,14.51
2019-03-28T05:58:42.822Z,14.29
2019-03-28T06:01:14.288Z,15.94
2019-03-28T06:03:45.618Z,17.01
2019-03-28T06:06:16.987Z,16.36
2019-03-28T06:08:48.633Z,15.76
2019-03-28T06:11:20.188Z,15.18
2019-03-28T06:13:51.800Z,14.72
2019-03-28T06:16:23.154Z,14.52
2019-03-28T06:18:54.465Z,16.24
2019-03-28T06:21:25.825Z,17.39
2019-03-28T06:23:57.245Z,16.83
2019-03-28T06:26:28.585Z,16.12
2019-03-28T06:28:59.972Z,15.53
2019-03-28T06:31:31.303Z,15.03
2019-03-28T06:34:03.144Z,14.59
2019-03-28T06:36:34.555Z,14.21
2019-03-28T06:39:06.761Z,15.66
2019-03-28T06:41:38.086Z,17.29
2019-03-28T06:44:09.416Z,16.86
2019-03-28T06:46:40.733Z,16.17
2019-03-28T06:49:12.058Z,15.65
2019-03-28T06:51:43.887Z,15.18
2019-03-28T06:54:15.216Z,14.75
2019-03-28T06:56:47.948Z,14.34
2019-03-28T06:59:20.012Z,13.98
2019-03-28T07:01:52.044Z,15.27
2019-03-28T07:04:23.559Z,16.87
2019-03-28T07:06:54.888Z,16.46
2019-03-28T07:09:26.814Z,15.83
2019-03-28T07:11:58.223Z,15.34
2019-03-28T07:14:30.066Z,14.94
2019-03-28T07:17:02.495Z,14.60
2019-03-28T07:19:34.126Z,14.25
2019-03-28T07:22:05.758Z,14.34
2019-03-28T07:24:37.283Z,16.21
2019-03-28T07:27:08.826Z,18.09
2019-03-28T07:29:50.348Z,18.04
2019-03-28T07:32:13.276Z,17.29
2019-03-28T07:34:44.620Z,16.73
2019-03-28T07:37:15.955Z,16.25
2019-03-28T07:39:47.287Z,15.90
2019-03-28T07:42:18.644Z,15.53
2019-03-28T07:44:50.188Z,15.17
2019-03-28T07:47:21.535Z,14.87
2019-03-28T07:49:52.870Z,14.60
2019-03-28T07:52:24.206Z,15.62
2019-03-28T07:54:55.652Z,17.39
2019-03-28T07:57:26.987Z,17.12
2019-03-28T08:00:04.434Z,16.71
2019-03-28T08:02:31.919Z,16.48
2019-03-28T08:05:03.353Z,16.27
2019-03-28T08:07:44.208Z,16.14
2019-03-28T08:10:08.813Z,16.04
2019-03-28T08:12:40.143Z,15.87
2019-03-28T08:15:11.483Z,15.66
2019-03-28T08:17:42.821Z,15.70
2019-03-28T08:20:14.149Z,16.20
2019-03-28T08:22:45.489Z,16.40
2019-03-28T08:25:16.839Z,16.43
2019-03-28T08:27:48.180Z,16.38
2019-03-28T08:30:38.574Z,16.45
2019-03-28T08:33:10.276Z,16.64
2019-03-28T08:35:41.611Z,16.80
2019-03-28T08:38:12.948Z,16.80
2019-03-28T08:40:45.711Z,16.73
2019-03-28T08:43:17.039Z,16.66
2019-03-28T08:45:48.374Z,16.55
2019-03-28T08:48:19.825Z,16.40
2019-03-28T08:50:51.172Z,16.29
2019-03-28T08:53:22.530Z,16.15
2019-03-28T08:55:53.896Z,16.07
2019-03-28T08:58:25.325Z,15.98
2019-03-28T09:00:56.657Z,15.95
2019-03-28T09:03:27.999Z,15.90
2019-03-28T09:05:59.352Z,15.88
2019-03-28T09:08:31.105Z,15.84
2019-03-28T09:11:02.439Z,15.78
2019-03-28T09:13:33.770Z,15.69
2019-03-28T09:16:05.120Z,15.59
2019-03-28T09:18:36.493Z,15.46
2019-03-28T09:21:07.820Z,15.35
2019-03-28T09:23:39.165Z,15.38
2019-03-28T09:26:10.520Z,15.45
2019-03-28T09:28:41.864Z,15.59
2019-03-28T09:31:19.930Z,15.67
2019-03-28T09:33:47.390Z,15.62
2019-03-28T09:36:18.710Z,15.46
2019-03-28T09:38:50.080Z,15.34
2019-03-28T09:41:21.408Z,15.19
2019-03-28T09:43:55.766Z,15.11
2019-03-28T09:46:26.276Z,15.01
2019-03-28T09:48:57.615Z,14.94
2019-03-28T09:51:28.954Z,14.86
2019-03-28T09:54:00.277Z,14.82
2019-03-28T09:56:31.598Z,14.77
2019-03-28T09:59:03.004Z,14.72
2019-03-28T10:01:34.632Z,14.75
2019-03-28T10:04:06.626Z,14.70
2019-03-28T10:06:39.338Z,14.77
2019-03-28T10:09:10.666Z,14.79
2019-03-28T10:11:41.989Z,14.77
2019-03-28T10:14:13.721Z,14.80
2019-03-28T10:16:45.049Z,14.82
2019-03-28T10:19:16.374Z,14.77
2019-03-28T10:21:48.968Z,14.73
2019-03-28T10:24:20.302Z,14.72
2019-03-28T10:26:53.074Z,14.68
2019-03-28T10:29:24.395Z,14.63
2019-03-28T10:31:55.716Z,14.65
2019-03-28T10:34:27.048Z,14.68
2019-03-28T10:36:58.665Z,14.76
2019-03-28T10:39:31.375Z,14.82
2019-03-28T10:42:02.766Z,14.87
2019-03-28T10:44:34.224Z,14.93
2019-03-28T10:47:06.919Z,14.97
2019-03-28T10:49:38.245Z,15.04
2019-03-28T10:52:11.944Z,15.13
2019-03-28T10:54:42.799Z,15.27
2019-03-28T10:57:28.962Z,15.34
2019-03-28T10:59:48.016Z,15.39
2019-03-28T11:02:19.357Z,15.41
2019-03-28T11:04:50.699Z,15.38
2019-03-28T11:07:22.027Z,15.39
2019-03-28T11:09:53.384Z,15.41
2019-03-28T11:12:24.704Z,15.38
2019-03-28T11:14:56.070Z,15.35
2019-03-28T11:17:27.407Z,15.32
2019-03-28T11:19:58.759Z,15.31
2019-03-28T11:22:30.097Z,15.31
2019-03-28T11:25:01.471Z,15.30
2019-03-28T11:27:34.055Z,15.28
2019-03-28T11:30:10.275Z,15.31
2019-03-28T11:32:41.609Z,15.28
2019-03-28T11:35:14.603Z,15.30
2019-03-28T11:37:46.105Z,15.35
2019-03-28T11:40:17.713Z,15.38
2019-03-28T11:42:51.897Z,15.41
2019-03-28T11:45:23.208Z,15.42
2019-03-28T11:47:54.946Z,15.45
2019-03-28T11:50:26.279Z,15.52
2019-03-28T11:52:57.910Z,15.52
2019-03-28T11:55:29.241Z,15.52
2019-03-28T11:58:00.810Z,15.49
2019-03-28T12:00:32.242Z,15.41
2019-03-28T12:03:03.702Z,15.41
2019-03-28T12:05:35.135Z,15.35
2019-03-28T12:08:06.477Z,15.34
2019-03-28T12:10:38.802Z,15.22
2019-03-28T12:13:10.449Z,15.17
2019-03-28T12:15:43.806Z,15.08
2019-03-28T12:18:15.192Z,15.04
2019-03-28T12:20:46.638Z,15.01
2019-03-28T12:23:17.968Z,14.98
2019-03-28T12:25:49.296Z,15.00
2019-03-28T12:28:20.624Z,15.00
2019-03-28T12:30:53.864Z,15.01
2019-03-28T12:33:25.210Z,15.01
2019-03-28T12:35:56.535Z,15.05
2019-03-28T12:38:28.645Z,15.01
2019-03-28T12:41:00.395Z,15.03
2019-03-28T12:43:31.741Z,15.03
2019-03-28T12:46:03.071Z,15.03
2019-03-28T12:48:34.425Z,15.03
2019-03-28T12:51:05.757Z,15.00
2019-03-28T12:53:37.305Z,15.04
2019-03-28T12:56:08.654Z,15.08
2019-03-28T12:58:40.174Z,15.14
2019-03-28T13:01:11.772Z,15.19
2019-03-28T13:03:45.745Z,15.24
2019-03-28T13:06:16.429Z,15.28
2019-03-28T13:08:47.868Z,15.34
2019-03-28T13:11:19.692Z,15.37
2019-03-28T13:13:51.334Z,15.43
2019-03-28T13:16:22.682Z,15.43
2019-03-28T13:18:54.022Z,15.43
2019-03-28T13:21:25.453Z,15.42
2019-03-28T13:23:57.194Z,15.43
2019-03-28T13:26:28.639Z,15.41
2019-03-28T13:29:00.107Z,15.38
2019-03-28T13:31:31.679Z,15.38
2019-03-28T13:34:07.782Z,15.37
2019-03-28T13:36:45.457Z,15.34
2019-03-28T13:39:18.606Z,15.35
2019-03-28T13:41:49.896Z,15.34
2019-03-28T13:44:24.810Z,15.41
2019-03-28T13:47:03.720Z,15.48
2019-03-28T13:49:32.622Z,15.55
2019-03-28T13:52:07.751Z,15.60
2019-03-28T13:54:40.795Z,15.66
2019-03-28T13:57:16.891Z,15.65
2019-03-28T13:59:57.461Z,15.70
2019-03-28T14:02:33.492Z,15.72
2019-03-28T14:05:07.234Z,15.74
2019-03-28T14:07:41.746Z,15.70
2019-03-28T14:10:14.965Z,15.70
2019-03-28T14:12:46.407Z,15.65
2019-03-28T14:15:17.752Z,15.60
2019-03-28T14:17:52.415Z,15.55
2019-03-28T14:20:23.794Z,15.49
2019-03-28T14:22:55.249Z,15.42
2019-03-28T14:25:26.613Z,15.37
2019-03-28T14:27:59.191Z,15.27
2019-03-28T14:30:30.525Z,15.18
2019-03-28T14:33:11.137Z,15.10
2019-03-28T14:35:35.292Z,14.98
2019-03-28T14:38:07.010Z,14.91
2019-03-28T14:40:38.839Z,14.84
2019-03-28T14:43:10.839Z,14.80
2019-03-28T14:45:43.805Z,14.72
2019-03-28T14:48:15.158Z,14.66
2019-03-28T14:50:46.543Z,14.62
2019-03-28T14:53:22.200Z,14.53
2019-03-28T14:55:54.212Z,14.51
2019-03-28T14:58:25.547Z,14.48
2019-03-28T15:00:58.034Z,14.43
2019-03-28T15:03:30.414Z,14.38
2019-03-28T15:06:01.960Z,14.35
2019-03-28T15:08:33.739Z,14.29
2019-03-28T15:11:05.074Z,14.23
2019-03-28T15:13:36.733Z,14.18
2019-03-28T15:16:08.373Z,14.14
2019-03-28T15:18:39.862Z,14.08
2019-03-28T15:21:11.200Z,14.03
2019-03-28T15:23:44.242Z,13.96
2019-03-28T15:26:15.719Z,13.93
2019-03-28T15:28:47.200Z,13.86
2019-03-28T15:31:20.102Z,13.86
2019-03-28T15:33:51.617Z,13.79
2019-03-28T15:36:23.341Z,13.73
2019-03-28T15:38:56.358Z,13.69
2019-03-28T15:41:27.722Z,13.62
2019-03-28T15:44:00.391Z,13.59
2019-03-28T15:46:31.735Z,13.58
2019-03-28T15:49:03.126Z,13.51
2019-03-28T15:51:34.483Z,13.45
2019-03-28T15:54:05.949Z,13.39
2019-03-28T15:56:39.255Z,13.37
2019-03-28T15:59:11.919Z,13.31
2019-03-28T16:01:43.477Z,13.28
2019-03-28T16:04:14.840Z,13.24
2019-03-28T16:06:46.215Z,13.18
2019-03-28T16:09:18.839Z,13.16
2019-03-28T16:12:02.384Z,13.11
2019-03-28T16:14:29.653Z,13.07
2019-03-28T16:17:01.320Z,13.08
2019-03-28T16:19:36.562Z,13.04
2019-03-28T16:22:12.029Z,13.00
2019-03-28T16:24:46.608Z,12.97
2019-03-28T16:27:18.302Z,12.93
2019-03-28T16:29:49.708Z,12.90
2019-03-28T16:32:40.103Z,12.80
2019-03-28T16:35:13.111Z,12.75
2019-03-28T16:37:44.577Z,12.69
2019-03-28T16:40:15.947Z,12.62
2019-03-28T16:42:47.496Z,12.52
2019-03-28T16:45:18.941Z,12.44
2019-03-28T16:47:51.122Z,12.35
2019-03-28T16:50:22.530Z,12.28
2019-03-28T16:52:53.906Z,12.16
2019-03-28T16:55:26.517Z,12.10
2019-03-28T16:57:58.562Z,11.97
2019-03-28T17:00:37.879Z,11.86
2019-03-28T17:03:10.457Z,11.76
2019-03-28T17:05:42.004Z,11.66
2019-03-28T17:08:13.393Z,11.54
2019-03-28T17:10:49.871Z,11.43
2019-03-28T17:13:22.994Z,11.33
2019-03-28T17:15:54.684Z,11.24
2019-03-28T17:18:26.055Z,11.17
2019-03-28T17:20:57.502Z,11.09
2019-03-28T17:23:29.531Z,11.02
2019-03-28T17:26:01.528Z,10.95
2019-03-28T17:28:41.239Z,10.89
2019-03-28T17:31:14.501Z,10.85
2019-03-28T17:33:50.208Z,10.81
2019-03-28T17:36:21.604Z,10.75
2019-03-28T17:38:54.137Z,10.68
2019-03-28T17:41:25.505Z,12.06
2019-03-28T17:44:02.609Z,14.24
2019-03-28T17:46:33.956Z,16.15
2019-03-28T17:49:05.397Z,16.32
2019-03-28T17:51:40.601Z,15.69
2019-03-28T17:54:12.396Z,15.15
2019-03-28T17:56:44.320Z,14.77
2019-03-28T17:59:15.941Z,14.41
2019-03-28T18:01:47.868Z,14.13
2019-03-28T18:04:22.975Z,13.83
2019-03-28T18:06:52.567Z,13.56
2019-03-28T18:09:24.213Z,13.30
2019-03-28T18:11:55.790Z,13.06
2019-03-28T18:14:27.223Z,12.84
2019-03-28T18:16:59.591Z,12.63
2019-03-28T18:19:31.741Z,12.44
2019-03-28T18:22:04.465Z,12.26
2019-03-28T18:24:35.848Z,12.10
2019-03-28T18:27:07.346Z,11.93
2019-03-28T18:29:38.844Z,11.78
2019-03-28T18:32:10.649Z,11.64
2019-03-28T18:34:43.158Z,11.50
2019-03-28T18:37:14.641Z,11.34
2019-03-28T18:39:46.081Z,11.21
2019-03-28T18:42:17.780Z,11.13
2019-03-28T18:44:49.400Z,10.98
2019-03-28T18:47:22.120Z,10.85
2019-03-28T18:49:53.676Z,10.72
2019-03-28T18:52:29.045Z,10.60
2019-03-28T18:55:01.384Z,10.43
2019-03-28T18:57:33.693Z,10.30
2019-03-28T19:00:07.491Z,10.17
2019-03-28T19:02:39.102Z,10.05
2019-03-28T19:05:19.834Z,9.89
2019-03-28T19:07:45.200Z,9.75
2019-03-28T19:10:16.662Z,9.65
2019-03-28T19:12:48.174Z,10.83
2019-03-28T19:15:21.020Z,12.95
2019-03-28T19:17:52.685Z,14.84
2019-03-28T19:20:24.086Z,15.05
2019-03-28T19:22:55.595Z,14.36
2019-03-28T19:25:26.977Z,13.82
2019-03-28T19:27:58.514Z,13.39
2019-03-28T19:30:33.641Z,13.04
2019-03-28T19:33:08.698Z,12.68
2019-03-28T19:35:42.814Z,12.33
2019-03-28T19:38:13.967Z,12.03
2019-03-28T19:40:45.417Z,11.75
2019-03-28T19:43:22.639Z,11.44
2019-03-28T19:45:53.368Z,11.20
2019-03-28T19:48:25.075Z,10.93
2019-03-28T19:50:56.582Z,10.70
2019-03-28T19:53:28.770Z,10.45
2019-03-28T19:56:00.278Z,10.20
2019-03-28T19:58:34.887Z,9.99
2019-03-28T20:01:06.077Z,9.78
2019-03-28T20:03:37.463Z,9.58
2019-03-28T20:06:21.623Z,9.37
2019-03-28T20:08:45.012Z,10.43
2019-03-28T20:11:17.233Z,12.62
2019-03-28T20:13:49.948Z,14.56
2019-03-28T20:16:21.597Z,14.70
2019-03-28T20:18:54.739Z,13.87
2019-03-28T20:21:28.030Z,13.16
2019-03-28T20:24:01.046Z,12.66
2019-03-28T20:26:32.434Z,12.20
2019-03-28T20:29:05.152Z,11.76
2019-03-28T20:31:36.662Z,11.37
2019-03-28T20:34:08.615Z,10.98
2019-03-28T20:36:45.206Z,10.63
2019-03-28T20:39:16.581Z,10.27
2019-03-28T20:41:48.349Z,9.95
2019-03-28T20:44:19.692Z,9.68
2019-03-28T20:46:51.039Z,9.44
2019-03-28T20:49:22.406Z,10.75
2019-03-28T20:51:56.911Z,12.86
2019-03-28T20:54:31.737Z,14.83
2019-03-28T20:57:06.797Z,14.84
2019-03-28T20:59:41.927Z,14.03
2019-03-28T21:02:14.532Z,13.41
2019-03-28T21:04:46.376Z,12.96
2019-03-28T21:07:20.371Z,12.54
2019-03-28T21:09:54.997Z,12.15
2019-03-28T21:12:27.838Z,11.79
2019-03-28T21:14:59.191Z,11.48
2019-03-28T21:17:35.610Z,11.17
2019-03-28T21:20:12.753Z,10.92
2019-03-28T21:22:49.109Z,10.65
2019-03-28T21:25:23.830Z,11.73
2019-03-28T21:28:00.170Z,14.08
2019-03-28T21:30:46.507Z,15.94
2019-03-28T21:33:15.030Z,15.87
2019-03-28T21:35:52.336Z,14.98
2019-03-28T21:38:27.190Z,14.32
2019-03-28T21:41:06.624Z,13.82
2019-03-28T21:43:38.739Z,13.35
2019-03-28T21:46:16.817Z,12.96
2019-03-28T21:48:56.995Z,12.56
2019-03-28T21:51:31.479Z,12.21
2019-03-28T21:54:06.175Z,11.89
2019-03-28T21:56:41.303Z,12.40
2019-03-28T21:59:13.089Z,14.47
2019-03-28T22:01:45.501Z,15.13
2019-03-28T22:04:16.838Z,14.47
2019-03-28T22:06:49.385Z,13.90
2019-03-28T22:09:24.240Z,13.48
2019-03-28T22:12:00.628Z,13.06
2019-03-28T22:14:31.483Z,12.73
2019-03-28T22:17:02.961Z,12.41
2019-03-28T22:19:34.708Z,12.16
2019-03-28T22:22:06.140Z,12.65
2019-03-28T22:24:39.148Z,14.75
2019-03-28T22:27:11.965Z,16.31
2019-03-28T22:29:43.309Z,15.76
2019-03-28T22:32:14.646Z,15.01
2019-03-28T22:34:46.199Z,14.45
2019-03-28T22:37:17.539Z,14.00
2019-03-28T22:39:48.872Z,13.59
2019-03-28T22:42:20.214Z,13.20
2019-03-28T22:44:53.738Z,13.04
2019-03-28T22:47:25.065Z,14.90
2019-03-28T22:49:56.399Z,16.78
2019-03-28T22:52:27.952Z,16.87
2019-03-28T22:54:59.289Z,16.07
2019-03-28T22:57:35.084Z,15.38
2019-03-28T23:00:12.137Z,14.87
2019-03-28T23:02:45.100Z,14.36
2019-03-28T23:05:24.184Z,13.94
2019-03-28T23:07:51.872Z,13.82
2019-03-28T23:10:23.218Z,15.66
2019-03-28T23:12:56.171Z,17.40
2019-03-28T23:15:27.505Z,17.05
2019-03-28T23:17:58.940Z,16.21
2019-03-28T23:20:33.527Z,15.60
2019-03-28T23:23:03.415Z,15.07
2019-03-28T23:25:35.269Z,14.56
2019-03-28T23:28:08.159Z,14.13
2019-03-28T23:30:39.875Z,14.31
2019-03-28T23:33:14.211Z,16.28
2019-03-28T23:35:45.543Z,16.63
2019-03-28T23:38:16.973Z,15.83
2019-03-28T23:40:48.407Z,15.18
2019-03-28T23:43:21.003Z,14.66
2019-03-28T23:45:52.534Z,14.21
2019-03-28T23:48:24.065Z,14.76
2019-03-28T23:50:55.504Z,16.66
2019-03-28T23:53:26.825Z,17.05
2019-03-28T23:55:58.174Z,16.25
2019-03-28T23:58:29.506Z,15.53
